sensor_id;sensor_type;location;lat;lon;timestamp;temperature;humidity
17697;DHT22;8967;47.984;7.842;2022-07-29T00:00:41;20.50;99.90
17697;DHT22;8967;47.984;7.842;2022-07-29T00:03:10;20.50;99.90
17697;DHT22;8967;47.984;7.842;2022-07-29T00:05:40;20.40;99.90
17697;DHT22;8967;47.984;7.842;2022-07-29T00:08:08;20.40;99.90
17697;DHT22;8967;47.984;7.842;2022-07-29T00:10:35;20.40;99.90
17697;DHT22;8967;47.984;7.842;2022-07-29T00:13:02;20.40;99.90
17697;DHT22;8967;47.984;7.842;2022-07-29T00:15:29;20.30;99.90
17697;DHT22;8967;47.984;7.842;2022-07-29T00:17:56;20.30;99.90
17697;DHT22;8967;47.984;7.842;2022-07-29T00:20:23;20.30;99.90
17697;DHT22;8967;47.984;7.842;2022-07-29T00:22:51;20.30;99.90
17697;DHT22;8967;47.984;7.842;2022-07-29T00:25:21;20.30;99.90
17697;DHT22;8967;47.984;7.842;2022-07-29T00:27:48;20.30;99.90
17697;DHT22;8967;47.984;7.842;2022-07-29T00:30:15;20.30;99.90
17697;DHT22;8967;47.984;7.842;2022-07-29T00:32:44;20.20;99.90
17697;DHT22;8967;47.984;7.842;2022-07-29T00:35:10;20.20;99.90
17697;DHT22;8967;47.984;7.842;2022-07-29T00:37:56;20.20;99.90
17697;DHT22;8967;47.984;7.842;2022-07-29T00:40:23;20.10;99.90
17697;DHT22;8967;47.984;7.842;2022-07-29T00:42:52;20.10;99.90
17697;DHT22;8967;47.984;7.842;2022-07-29T00:45:21;20.10;99.90
17697;DHT22;8967;47.984;7.842;2022-07-29T00:47:49;20.10;99.90
17697;DHT22;8967;47.984;7.842;2022-07-29T00:50:16;20.10;99.90
17697;DHT22;8967;47.984;7.842;2022-07-29T00:52:43;20.00;99.90
17697;DHT22;8967;47.984;7.842;2022-07-29T00:55:15;20.00;99.90
17697;DHT22;8967;47.984;7.842;2022-07-29T00:57:43;20.00;99.90
17697;DHT22;8967;47.984;7.842;2022-07-29T01:00:12;20.00;99.90
17697;DHT22;8967;47.984;7.842;2022-07-29T01:02:40;20.00;99.90
17697;DHT22;8967;47.984;7.842;2022-07-29T01:05:07;19.90;99.90
17697;DHT22;8967;47.984;7.842;2022-07-29T01:07:35;19.90;99.90
17697;DHT22;8967;47.984;7.842;2022-07-29T01:10:03;20.00;99.90
17697;DHT22;8967;47.984;7.842;2022-07-29T01:12:33;20.00;99.90
17697;DHT22;8967;47.984;7.842;2022-07-29T01:15:01;20.00;99.90
17697;DHT22;8967;47.984;7.842;2022-07-29T01:17:33;20.00;99.90
17697;DHT22;8967;47.984;7.842;2022-07-29T01:20:09;19.90;99.90
17697;DHT22;8967;47.984;7.842;2022-07-29T01:22:53;19.90;99.90
17697;DHT22;8967;47.984;7.842;2022-07-29T01:28:54;19.90;99.90
17697;DHT22;8967;47.984;7.842;2022-07-29T01:31:28;19.80;99.90
17697;DHT22;8967;47.984;7.842;2022-07-29T01:34:03;19.80;99.90
17697;DHT22;8967;47.984;7.842;2022-07-29T01:36:33;19.80;99.90
17697;DHT22;8967;47.984;7.842;2022-07-29T01:39:06;19.70;99.90
17697;DHT22;8967;47.984;7.842;2022-07-29T01:41:36;19.80;99.90
17697;DHT22;8967;47.984;7.842;2022-07-29T01:44:12;19.80;99.90
17697;DHT22;8967;47.984;7.842;2022-07-29T01:46:46;19.80;99.90
17697;DHT22;8967;47.984;7.842;2022-07-29T01:49:18;19.70;99.90
17697;DHT22;8967;47.984;7.842;2022-07-29T01:51:50;19.70;99.90
17697;DHT22;8967;47.984;7.842;2022-07-29T01:54:21;19.70;99.90
17697;DHT22;8967;47.984;7.842;2022-07-29T01:56:51;19.70;99.90
17697;DHT22;8967;47.984;7.842;2022-07-29T01:59:21;19.80;99.90
17697;DHT22;8967;47.984;7.842;2022-07-29T02:01:52;19.70;99.90
17697;DHT22;8967;47.984;7.842;2022-07-29T02:04:20;19.80;99.90
17697;DHT22;8967;47.984;7.842;2022-07-29T02:06:50;19.80;99.90
17697;DHT22;8967;47.984;7.842;2022-07-29T02:09:20;19.80;99.90
17697;DHT22;8967;47.984;7.842;2022-07-29T02:11:52;19.80;99.90
17697;DHT22;8967;47.984;7.842;2022-07-29T02:14:22;19.80;99.90
17697;DHT22;8967;47.984;7.842;2022-07-29T02:16:52;19.80;99.90
17697;DHT22;8967;47.984;7.842;2022-07-29T02:19:23;19.80;99.90
17697;DHT22;8967;47.984;7.842;2022-07-29T02:21:53;19.70;99.90
17697;DHT22;8967;47.984;7.842;2022-07-29T02:24:23;19.70;99.90
17697;DHT22;8967;47.984;7.842;2022-07-29T02:26:53;19.70;99.90
17697;DHT22;8967;47.984;7.842;2022-07-29T02:29:24;19.80;99.90
17697;DHT22;8967;47.984;7.842;2022-07-29T02:31:52;19.80;99.90
17697;DHT22;8967;47.984;7.842;2022-07-29T02:34:20;19.80;99.90
17697;DHT22;8967;47.984;7.842;2022-07-29T02:36:51;19.80;99.90
17697;DHT22;8967;47.984;7.842;2022-07-29T02:39:19;19.80;99.90
17697;DHT22;8967;47.984;7.842;2022-07-29T02:41:51;19.80;99.90
17697;DHT22;8967;47.984;7.842;2022-07-29T02:44:20;19.80;99.90
17697;DHT22;8967;47.984;7.842;2022-07-29T02:46:53;19.80;99.90
17697;DHT22;8967;47.984;7.842;2022-07-29T02:49:32;19.70;99.90
17697;DHT22;8967;47.984;7.842;2022-07-29T02:52:06;19.70;99.90
17697;DHT22;8967;47.984;7.842;2022-07-29T02:54:39;19.70;99.90
17697;DHT22;8967;47.984;7.842;2022-07-29T02:57:14;19.70;99.90
17697;DHT22;8967;47.984;7.842;2022-07-29T02:59:47;19.60;99.90
17697;DHT22;8967;47.984;7.842;2022-07-29T03:02:18;19.60;99.90
17697;DHT22;8967;47.984;7.842;2022-07-29T03:04:47;19.60;99.90
17697;DHT22;8967;47.984;7.842;2022-07-29T03:07:18;19.60;99.90
17697;DHT22;8967;47.984;7.842;2022-07-29T03:09:47;19.60;99.90
17697;DHT22;8967;47.984;7.842;2022-07-29T03:12:14;19.50;99.90
17697;DHT22;8967;47.984;7.842;2022-07-29T03:14:43;19.50;99.90
17697;DHT22;8967;47.984;7.842;2022-07-29T03:17:10;19.50;99.90
17697;DHT22;8967;47.984;7.842;2022-07-29T03:19:39;19.50;99.90
17697;DHT22;8967;47.984;7.842;2022-07-29T03:22:06;19.50;99.90
17697;DHT22;8967;47.984;7.842;2022-07-29T03:24:35;19.50;99.90
17697;DHT22;8967;47.984;7.842;2022-07-29T03:27:03;19.40;99.90
17697;DHT22;8967;47.984;7.842;2022-07-29T03:29:30;19.40;99.90
17697;DHT22;8967;47.984;7.842;2022-07-29T03:31:58;19.40;99.90
17697;DHT22;8967;47.984;7.842;2022-07-29T03:34:25;19.30;99.90
17697;DHT22;8967;47.984;7.842;2022-07-29T03:36:53;19.30;99.90
17697;DHT22;8967;47.984;7.842;2022-07-29T03:39:22;19.20;99.90
17697;DHT22;8967;47.984;7.842;2022-07-29T03:41:55;19.20;99.90
17697;DHT22;8967;47.984;7.842;2022-07-29T03:44:22;19.20;99.90
17697;DHT22;8967;47.984;7.842;2022-07-29T03:46:51;19.20;99.90
17697;DHT22;8967;47.984;7.842;2022-07-29T03:49:21;19.20;99.90
17697;DHT22;8967;47.984;7.842;2022-07-29T03:51:50;19.20;99.90
17697;DHT22;8967;47.984;7.842;2022-07-29T03:54:18;19.10;99.90
17697;DHT22;8967;47.984;7.842;2022-07-29T03:56:46;19.20;99.90
17697;DHT22;8967;47.984;7.842;2022-07-29T03:59:15;19.10;99.90
17697;DHT22;8967;47.984;7.842;2022-07-29T04:01:46;19.10;99.90
17697;DHT22;8967;47.984;7.842;2022-07-29T04:04:13;19.10;99.90
17697;DHT22;8967;47.984;7.842;2022-07-29T04:06:44;19.10;99.90
17697;DHT22;8967;47.984;7.842;2022-07-29T04:09:12;19.20;99.90
17697;DHT22;8967;47.984;7.842;2022-07-29T04:11:42;19.10;99.90
17697;DHT22;8967;47.984;7.842;2022-07-29T04:14:10;19.10;99.90
17697;DHT22;8967;47.984;7.842;2022-07-29T04:16:37;19.10;99.90
17697;DHT22;8967;47.984;7.842;2022-07-29T04:19:04;19.00;99.90
17697;DHT22;8967;47.984;7.842;2022-07-29T04:21:31;19.00;99.90
17697;DHT22;8967;47.984;7.842;2022-07-29T04:23:57;19.10;99.90
17697;DHT22;8967;47.984;7.842;2022-07-29T04:26:25;19.10;99.90
17697;DHT22;8967;47.984;7.842;2022-07-29T04:28:53;19.10;99.90
17697;DHT22;8967;47.984;7.842;2022-07-29T04:31:20;19.10;99.90
17697;DHT22;8967;47.984;7.842;2022-07-29T04:33:47;19.20;99.90
17697;DHT22;8967;47.984;7.842;2022-07-29T04:36:14;19.20;99.90
17697;DHT22;8967;47.984;7.842;2022-07-29T04:38:41;19.20;99.90
17697;DHT22;8967;47.984;7.842;2022-07-29T04:41:08;19.20;99.90
17697;DHT22;8967;47.984;7.842;2022-07-29T04:43:36;19.30;99.90
17697;DHT22;8967;47.984;7.842;2022-07-29T04:46:06;19.30;99.90
17697;DHT22;8967;47.984;7.842;2022-07-29T04:48:33;19.30;99.90
17697;DHT22;8967;47.984;7.842;2022-07-29T04:51:00;19.30;99.90
17697;DHT22;8967;47.984;7.842;2022-07-29T04:53:27;19.30;99.90
17697;DHT22;8967;47.984;7.842;2022-07-29T04:55:54;19.30;99.90
17697;DHT22;8967;47.984;7.842;2022-07-29T04:58:21;19.30;99.90
17697;DHT22;8967;47.984;7.842;2022-07-29T05:00:49;19.30;99.90
17697;DHT22;8967;47.984;7.842;2022-07-29T05:03:17;19.40;99.90
17697;DHT22;8967;47.984;7.842;2022-07-29T05:05:44;19.40;99.90
17697;DHT22;8967;47.984;7.842;2022-07-29T05:08:11;19.40;99.90
17697;DHT22;8967;47.984;7.842;2022-07-29T05:10:38;19.40;99.90
17697;DHT22;8967;47.984;7.842;2022-07-29T05:13:05;19.40;99.90
17697;DHT22;8967;47.984;7.842;2022-07-29T05:15:33;19.40;99.90
17697;DHT22;8967;47.984;7.842;2022-07-29T05:18:00;19.50;99.90
17697;DHT22;8967;47.984;7.842;2022-07-29T05:20:31;19.50;99.90
17697;DHT22;8967;47.984;7.842;2022-07-29T05:23:00;19.50;99.90
17697;DHT22;8967;47.984;7.842;2022-07-29T05:25:29;19.50;99.90
17697;DHT22;8967;47.984;7.842;2022-07-29T05:27:59;19.60;99.90
17697;DHT22;8967;47.984;7.842;2022-07-29T05:30:26;19.60;99.90
17697;DHT22;8967;47.984;7.842;2022-07-29T05:32:56;19.60;99.90
17697;DHT22;8967;47.984;7.842;2022-07-29T05:35:23;19.60;99.90
17697;DHT22;8967;47.984;7.842;2022-07-29T05:37:51;19.70;99.90
17697;DHT22;8967;47.984;7.842;2022-07-29T05:40:18;19.70;99.90
17697;DHT22;8967;47.984;7.842;2022-07-29T05:42:48;19.80;99.90
17697;DHT22;8967;47.984;7.842;2022-07-29T05:45:15;19.80;99.90
17697;DHT22;8967;47.984;7.842;2022-07-29T05:47:42;19.90;99.90
17697;DHT22;8967;47.984;7.842;2022-07-29T05:50:11;20.00;99.90
17697;DHT22;8967;47.984;7.842;2022-07-29T05:52:40;20.00;99.50
17697;DHT22;8967;47.984;7.842;2022-07-29T05:55:11;20.00;99.50
17697;DHT22;8967;47.984;7.842;2022-07-29T05:57:40;20.00;99.40
17697;DHT22;8967;47.984;7.842;2022-07-29T06:00:10;20.10;99.50
17697;DHT22;8967;47.984;7.842;2022-07-29T06:02:39;20.10;99.40
17697;DHT22;8967;47.984;7.842;2022-07-29T06:05:07;20.20;99.30
17697;DHT22;8967;47.984;7.842;2022-07-29T06:07:34;20.20;99.10
17697;DHT22;8967;47.984;7.842;2022-07-29T06:10:01;20.20;99.10
17697;DHT22;8967;47.984;7.842;2022-07-29T06:12:29;20.30;98.90
17697;DHT22;8967;47.984;7.842;2022-07-29T06:14:56;20.40;99.00
17697;DHT22;8967;47.984;7.842;2022-07-29T06:17:23;20.40;98.90
17697;DHT22;8967;47.984;7.842;2022-07-29T06:19:51;20.40;98.80
17697;DHT22;8967;47.984;7.842;2022-07-29T06:22:17;20.40;98.80
17697;DHT22;8967;47.984;7.842;2022-07-29T06:24:44;20.50;98.70
17697;DHT22;8967;47.984;7.842;2022-07-29T06:27:14;20.50;98.50
17697;DHT22;8967;47.984;7.842;2022-07-29T06:29:43;20.60;98.50
17697;DHT22;8967;47.984;7.842;2022-07-29T06:32:10;20.70;98.40
17697;DHT22;8967;47.984;7.842;2022-07-29T06:34:37;20.80;98.40
17697;DHT22;8967;47.984;7.842;2022-07-29T06:37:06;20.90;98.20
17697;DHT22;8967;47.984;7.842;2022-07-29T06:39:34;21.00;97.90
17697;DHT22;8967;47.984;7.842;2022-07-29T06:42:01;21.10;97.70
17697;DHT22;8967;47.984;7.842;2022-07-29T06:44:29;21.20;97.50
17697;DHT22;8967;47.984;7.842;2022-07-29T06:46:58;21.20;97.40
17697;DHT22;8967;47.984;7.842;2022-07-29T06:49:24;21.30;97.00
17697;DHT22;8967;47.984;7.842;2022-07-29T06:51:55;21.30;96.60
17697;DHT22;8967;47.984;7.842;2022-07-29T06:54:22;21.40;96.80
17697;DHT22;8967;47.984;7.842;2022-07-29T06:56:49;21.40;96.70
17697;DHT22;8967;47.984;7.842;2022-07-29T06:59:18;21.50;96.70
17697;DHT22;8967;47.984;7.842;2022-07-29T07:01:45;21.50;96.60
17697;DHT22;8967;47.984;7.842;2022-07-29T07:04:13;21.60;96.40
17697;DHT22;8967;47.984;7.842;2022-07-29T07:06:40;21.70;96.40
17697;DHT22;8967;47.984;7.842;2022-07-29T07:09:07;21.80;96.40
17697;DHT22;8967;47.984;7.842;2022-07-29T07:11:35;21.80;96.30
17697;DHT22;8967;47.984;7.842;2022-07-29T07:14:04;21.90;96.30
17697;DHT22;8967;47.984;7.842;2022-07-29T07:16:31;22.00;96.20
17697;DHT22;8967;47.984;7.842;2022-07-29T07:18:58;22.00;96.10
17697;DHT22;8967;47.984;7.842;2022-07-29T07:21:26;22.10;96.00
17697;DHT22;8967;47.984;7.842;2022-07-29T07:23:53;22.20;96.00
17697;DHT22;8967;47.984;7.842;2022-07-29T07:26:20;22.20;95.80
17697;DHT22;8967;47.984;7.842;2022-07-29T07:28:47;22.30;95.60
17697;DHT22;8967;47.984;7.842;2022-07-29T07:31:14;22.40;95.40
17697;DHT22;8967;47.984;7.842;2022-07-29T07:33:41;22.50;95.20
17697;DHT22;8967;47.984;7.842;2022-07-29T07:36:08;22.50;95.00
17697;DHT22;8967;47.984;7.842;2022-07-29T07:38:39;22.60;94.70
17697;DHT22;8967;47.984;7.842;2022-07-29T07:41:06;22.70;94.30
17697;DHT22;8967;47.984;7.842;2022-07-29T07:43:33;22.80;94.00
17697;DHT22;8967;47.984;7.842;2022-07-29T07:46:00;22.90;94.00
17697;DHT22;8967;47.984;7.842;2022-07-29T07:48:27;23.00;93.90
17697;DHT22;8967;47.984;7.842;2022-07-29T07:50:54;23.10;93.70
17697;DHT22;8967;47.984;7.842;2022-07-29T07:53:21;23.10;93.30
17697;DHT22;8967;47.984;7.842;2022-07-29T07:55:49;23.10;93.10
17697;DHT22;8967;47.984;7.842;2022-07-29T07:58:18;23.10;92.90
17697;DHT22;8967;47.984;7.842;2022-07-29T08:00:45;23.10;92.80
17697;DHT22;8967;47.984;7.842;2022-07-29T08:03:13;23.20;92.70
17697;DHT22;8967;47.984;7.842;2022-07-29T08:05:45;23.20;92.80
17697;DHT22;8967;47.984;7.842;2022-07-29T08:08:13;23.20;92.70
17697;DHT22;8967;47.984;7.842;2022-07-29T08:10:40;23.30;92.80
17697;DHT22;8967;47.984;7.842;2022-07-29T08:13:21;23.30;92.90
17697;DHT22;8967;47.984;7.842;2022-07-29T08:15:49;23.40;92.80
17697;DHT22;8967;47.984;7.842;2022-07-29T08:18:23;23.50;92.40
17697;DHT22;8967;47.984;7.842;2022-07-29T08:20:52;23.50;92.30
17697;DHT22;8967;47.984;7.842;2022-07-29T08:23:20;23.60;92.20
17697;DHT22;8967;47.984;7.842;2022-07-29T08:25:46;23.60;92.00
17697;DHT22;8967;47.984;7.842;2022-07-29T08:28:14;23.70;92.10
17697;DHT22;8967;47.984;7.842;2022-07-29T08:30:42;23.80;91.90
17697;DHT22;8967;47.984;7.842;2022-07-29T08:33:09;23.90;90.80
17697;DHT22;8967;47.984;7.842;2022-07-29T08:35:36;23.90;91.00
17697;DHT22;8967;47.984;7.842;2022-07-29T08:38:03;24.00;91.10
17697;DHT22;8967;47.984;7.842;2022-07-29T08:40:30;24.10;90.90
17697;DHT22;8967;47.984;7.842;2022-07-29T08:42:57;24.20;90.70
17697;DHT22;8967;47.984;7.842;2022-07-29T08:45:25;24.30;90.20
17697;DHT22;8967;47.984;7.842;2022-07-29T08:47:55;24.40;90.00
17697;DHT22;8967;47.984;7.842;2022-07-29T08:50:22;24.50;88.80
17697;DHT22;8967;47.984;7.842;2022-07-29T08:52:49;24.60;88.30
17697;DHT22;8967;47.984;7.842;2022-07-29T08:55:17;24.60;87.50
17697;DHT22;8967;47.984;7.842;2022-07-29T08:57:45;24.60;86.30
17697;DHT22;8967;47.984;7.842;2022-07-29T09:00:12;24.60;85.60
17697;DHT22;8967;47.984;7.842;2022-07-29T09:02:41;24.60;85.50
17697;DHT22;8967;47.984;7.842;2022-07-29T09:05:12;24.70;85.20
17697;DHT22;8967;47.984;7.842;2022-07-29T09:07:40;24.60;84.60
17697;DHT22;8967;47.984;7.842;2022-07-29T09:10:09;24.70;83.90
17697;DHT22;8967;47.984;7.842;2022-07-29T09:12:36;24.70;83.70
17697;DHT22;8967;47.984;7.842;2022-07-29T09:15:04;24.70;82.70
17697;DHT22;8967;47.984;7.842;2022-07-29T09:17:41;24.70;82.30
17697;DHT22;8967;47.984;7.842;2022-07-29T09:20:10;24.70;81.50
17697;DHT22;8967;47.984;7.842;2022-07-29T09:22:38;24.60;80.40
17697;DHT22;8967;47.984;7.842;2022-07-29T09:25:08;24.60;80.50
17697;DHT22;8967;47.984;7.842;2022-07-29T09:27:37;24.60;80.10
17697;DHT22;8967;47.984;7.842;2022-07-29T09:30:08;24.60;79.50
17697;DHT22;8967;47.984;7.842;2022-07-29T09:32:54;24.60;79.20
17697;DHT22;8967;47.984;7.842;2022-07-29T09:35:23;24.60;78.40
17697;DHT22;8967;47.984;7.842;2022-07-29T09:37:52;24.60;78.40
17697;DHT22;8967;47.984;7.842;2022-07-29T09:40:22;24.60;78.50
17697;DHT22;8967;47.984;7.842;2022-07-29T09:42:50;24.70;78.30
17697;DHT22;8967;47.984;7.842;2022-07-29T09:45:29;24.70;78.10
17697;DHT22;8967;47.984;7.842;2022-07-29T09:47:56;24.70;77.20
17697;DHT22;8967;47.984;7.842;2022-07-29T09:50:36;24.70;76.50
17697;DHT22;8967;47.984;7.842;2022-07-29T09:53:04;24.70;75.70
17697;DHT22;8967;47.984;7.842;2022-07-29T09:55:31;24.70;75.10
17697;DHT22;8967;47.984;7.842;2022-07-29T09:58:15;24.80;75.00
17697;DHT22;8967;47.984;7.842;2022-07-29T10:00:44;24.80;75.10
17697;DHT22;8967;47.984;7.842;2022-07-29T10:03:11;24.90;75.20
17697;DHT22;8967;47.984;7.842;2022-07-29T10:05:38;24.90;74.60
17697;DHT22;8967;47.984;7.842;2022-07-29T10:08:09;25.00;73.80
17697;DHT22;8967;47.984;7.842;2022-07-29T10:10:39;25.00;74.00
17697;DHT22;8967;47.984;7.842;2022-07-29T10:13:10;25.00;74.00
17697;DHT22;8967;47.984;7.842;2022-07-29T10:15:39;25.10;74.10
17697;DHT22;8967;47.984;7.842;2022-07-29T10:18:09;25.10;73.80
17697;DHT22;8967;47.984;7.842;2022-07-29T10:20:40;25.20;73.60
17697;DHT22;8967;47.984;7.842;2022-07-29T10:23:08;25.20;73.30
17697;DHT22;8967;47.984;7.842;2022-07-29T10:25:35;25.30;73.00
17697;DHT22;8967;47.984;7.842;2022-07-29T10:28:03;25.30;72.50
17697;DHT22;8967;47.984;7.842;2022-07-29T10:30:32;25.40;72.90
17697;DHT22;8967;47.984;7.842;2022-07-29T10:33:15;25.40;72.70
17697;DHT22;8967;47.984;7.842;2022-07-29T10:36:04;25.50;72.30
17697;DHT22;8967;47.984;7.842;2022-07-29T10:38:43;25.50;71.60
17697;DHT22;8967;47.984;7.842;2022-07-29T10:41:32;25.50;71.90
17697;DHT22;8967;47.984;7.842;2022-07-29T10:44:02;25.60;72.00
17697;DHT22;8967;47.984;7.842;2022-07-29T10:46:35;25.60;71.50
17697;DHT22;8967;47.984;7.842;2022-07-29T10:49:07;25.60;71.40
17697;DHT22;8967;47.984;7.842;2022-07-29T10:52:08;25.70;71.30
17697;DHT22;8967;47.984;7.842;2022-07-29T10:54:40;25.70;70.90
17697;DHT22;8967;47.984;7.842;2022-07-29T10:57:16;25.70;71.10
17697;DHT22;8967;47.984;7.842;2022-07-29T10:59:46;25.80;70.90
17697;DHT22;8967;47.984;7.842;2022-07-29T11:02:41;25.80;70.30
17697;DHT22;8967;47.984;7.842;2022-07-29T11:05:10;25.80;70.30
17697;DHT22;8967;47.984;7.842;2022-07-29T11:07:38;25.90;70.10
17697;DHT22;8967;47.984;7.842;2022-07-29T11:10:23;26.00;69.90
17697;DHT22;8967;47.984;7.842;2022-07-29T11:12:50;26.00;69.60
17697;DHT22;8967;47.984;7.842;2022-07-29T11:15:20;26.00;69.20
17697;DHT22;8967;47.984;7.842;2022-07-29T11:18:04;26.00;69.50
17697;DHT22;8967;47.984;7.842;2022-07-29T11:20:36;26.10;69.00
17697;DHT22;8967;47.984;7.842;2022-07-29T11:23:22;26.10;69.20
17697;DHT22;8967;47.984;7.842;2022-07-29T11:26:17;26.10;69.00
17697;DHT22;8967;47.984;7.842;2022-07-29T11:29:02;26.20;68.90
17697;DHT22;8967;47.984;7.842;2022-07-29T11:31:36;26.20;68.30
17697;DHT22;8967;47.984;7.842;2022-07-29T11:34:23;26.20;68.20
17697;DHT22;8967;47.984;7.842;2022-07-29T11:37:16;26.20;68.00
17697;DHT22;8967;47.984;7.842;2022-07-29T11:39:46;26.20;67.40
17697;DHT22;8967;47.984;7.842;2022-07-29T11:42:44;26.20;67.60
17697;DHT22;8967;47.984;7.842;2022-07-29T11:45:17;26.10;67.70
17697;DHT22;8967;47.984;7.842;2022-07-29T11:47:49;26.10;67.90
17697;DHT22;8967;47.984;7.842;2022-07-29T11:50:27;26.10;67.50
17697;DHT22;8967;47.984;7.842;2022-07-29T11:52:55;26.10;68.00
17697;DHT22;8967;47.984;7.842;2022-07-29T11:55:26;26.10;68.40
17697;DHT22;8967;47.984;7.842;2022-07-29T11:57:56;26.10;68.80
17697;DHT22;8967;47.984;7.842;2022-07-29T12:00:27;26.10;68.00
17697;DHT22;8967;47.984;7.842;2022-07-29T12:02:55;26.10;68.10
17697;DHT22;8967;47.984;7.842;2022-07-29T12:05:31;26.10;67.80
17697;DHT22;8967;47.984;7.842;2022-07-29T12:08:08;26.10;68.00
17697;DHT22;8967;47.984;7.842;2022-07-29T12:10:38;26.00;68.00
17697;DHT22;8967;47.984;7.842;2022-07-29T12:13:07;26.00;68.10
17697;DHT22;8967;47.984;7.842;2022-07-29T12:15:34;26.00;68.20
17697;DHT22;8967;47.984;7.842;2022-07-29T12:18:13;26.00;68.30
17697;DHT22;8967;47.984;7.842;2022-07-29T12:20:40;26.00;68.70
17697;DHT22;8967;47.984;7.842;2022-07-29T12:23:10;26.00;69.00
17697;DHT22;8967;47.984;7.842;2022-07-29T12:25:41;26.00;69.20
17697;DHT22;8967;47.984;7.842;2022-07-29T12:28:12;26.00;69.40
17697;DHT22;8967;47.984;7.842;2022-07-29T12:30:46;26.00;69.40
17697;DHT22;8967;47.984;7.842;2022-07-29T12:33:16;26.00;69.50
17697;DHT22;8967;47.984;7.842;2022-07-29T12:35:51;26.00;69.50
17697;DHT22;8967;47.984;7.842;2022-07-29T12:38:19;26.00;69.80
17697;DHT22;8967;47.984;7.842;2022-07-29T12:40:47;26.10;69.60
17697;DHT22;8967;47.984;7.842;2022-07-29T12:43:17;26.10;69.70
17697;DHT22;8967;47.984;7.842;2022-07-29T12:45:46;26.10;69.70
17697;DHT22;8967;47.984;7.842;2022-07-29T12:48:14;26.10;68.90
17697;DHT22;8967;47.984;7.842;2022-07-29T12:50:55;26.10;68.90
17697;DHT22;8967;47.984;7.842;2022-07-29T12:53:22;26.10;68.40
17697;DHT22;8967;47.984;7.842;2022-07-29T12:55:51;26.10;68.10
17697;DHT22;8967;47.984;7.842;2022-07-29T12:58:31;26.10;67.80
17697;DHT22;8967;47.984;7.842;2022-07-29T13:01:07;26.10;67.80
17697;DHT22;8967;47.984;7.842;2022-07-29T13:03:46;26.10;67.50
17697;DHT22;8967;47.984;7.842;2022-07-29T13:06:44;26.10;67.10
17697;DHT22;8967;47.984;7.842;2022-07-29T13:09:13;26.10;66.90
17697;DHT22;8967;47.984;7.842;2022-07-29T13:11:42;26.10;66.50
17697;DHT22;8967;47.984;7.842;2022-07-29T13:14:12;26.10;66.80
17697;DHT22;8967;47.984;7.842;2022-07-29T13:17:01;26.10;66.90
17697;DHT22;8967;47.984;7.842;2022-07-29T13:19:34;26.10;66.70
17697;DHT22;8967;47.984;7.842;2022-07-29T13:22:04;26.10;66.60
17697;DHT22;8967;47.984;7.842;2022-07-29T13:24:34;26.10;66.70
17697;DHT22;8967;47.984;7.842;2022-07-29T13:27:14;26.10;66.70
17697;DHT22;8967;47.984;7.842;2022-07-29T13:29:42;26.10;66.50
17697;DHT22;8967;47.984;7.842;2022-07-29T13:32:09;26.10;66.20
17697;DHT22;8967;47.984;7.842;2022-07-29T13:34:36;26.10;65.80
17697;DHT22;8967;47.984;7.842;2022-07-29T13:37:03;26.20;66.20
17697;DHT22;8967;47.984;7.842;2022-07-29T13:39:30;26.20;66.60
17697;DHT22;8967;47.984;7.842;2022-07-29T13:41:59;26.20;66.10
17697;DHT22;8967;47.984;7.842;2022-07-29T13:44:29;26.20;66.00
17697;DHT22;8967;47.984;7.842;2022-07-29T13:46:57;26.20;65.60
17697;DHT22;8967;47.984;7.842;2022-07-29T13:49:25;26.20;65.00
17697;DHT22;8967;47.984;7.842;2022-07-29T13:51:53;26.10;64.00
17697;DHT22;8967;47.984;7.842;2022-07-29T13:54:20;26.10;64.40
17697;DHT22;8967;47.984;7.842;2022-07-29T13:56:47;26.20;64.60
17697;DHT22;8967;47.984;7.842;2022-07-29T13:59:14;26.20;64.80
17697;DHT22;8967;47.984;7.842;2022-07-29T14:01:41;26.30;65.10
17697;DHT22;8967;47.984;7.842;2022-07-29T14:04:10;26.20;65.00
17697;DHT22;8967;47.984;7.842;2022-07-29T14:06:37;26.30;64.70
17697;DHT22;8967;47.984;7.842;2022-07-29T14:09:04;26.30;64.80
17697;DHT22;8967;47.984;7.842;2022-07-29T14:11:34;26.30;64.90
17697;DHT22;8967;47.984;7.842;2022-07-29T14:14:01;26.30;65.10
17697;DHT22;8967;47.984;7.842;2022-07-29T14:16:28;26.30;65.50
17697;DHT22;8967;47.984;7.842;2022-07-29T14:18:55;26.20;64.90
17697;DHT22;8967;47.984;7.842;2022-07-29T14:21:25;26.20;65.50
17697;DHT22;8967;47.984;7.842;2022-07-29T14:23:52;26.10;65.30
17697;DHT22;8967;47.984;7.842;2022-07-29T14:26:20;26.10;65.80
17697;DHT22;8967;47.984;7.842;2022-07-29T14:28:47;26.00;65.30
17697;DHT22;8967;47.984;7.842;2022-07-29T14:31:14;26.00;65.50
17697;DHT22;8967;47.984;7.842;2022-07-29T14:33:41;26.00;64.90
17697;DHT22;8967;47.984;7.842;2022-07-29T14:36:08;25.90;64.40
17697;DHT22;8967;47.984;7.842;2022-07-29T14:38:37;25.90;64.30
17697;DHT22;8967;47.984;7.842;2022-07-29T14:41:04;25.80;64.00
17697;DHT22;8967;47.984;7.842;2022-07-29T14:43:31;25.80;63.90
17697;DHT22;8967;47.984;7.842;2022-07-29T14:45:58;25.80;63.60
17697;DHT22;8967;47.984;7.842;2022-07-29T14:48:25;25.80;63.10
17697;DHT22;8967;47.984;7.842;2022-07-29T14:50:52;25.80;62.80
17697;DHT22;8967;47.984;7.842;2022-07-29T14:53:20;25.80;62.70
17697;DHT22;8967;47.984;7.842;2022-07-29T14:55:48;25.80;62.50
17697;DHT22;8967;47.984;7.842;2022-07-29T14:58:17;25.80;62.40
17697;DHT22;8967;47.984;7.842;2022-07-29T15:00:46;25.80;61.30
17697;DHT22;8967;47.984;7.842;2022-07-29T15:03:13;25.80;61.40
17697;DHT22;8967;47.984;7.842;2022-07-29T15:05:40;25.90;61.00
17697;DHT22;8967;47.984;7.842;2022-07-29T15:08:07;25.90;60.70
17697;DHT22;8967;47.984;7.842;2022-07-29T15:10:34;25.90;60.40
17697;DHT22;8967;47.984;7.842;2022-07-29T15:13:05;25.90;60.20
17697;DHT22;8967;47.984;7.842;2022-07-29T15:15:32;25.90;59.90
17697;DHT22;8967;47.984;7.842;2022-07-29T15:17:59;25.90;59.90
17697;DHT22;8967;47.984;7.842;2022-07-29T15:20:26;25.90;59.70
17697;DHT22;8967;47.984;7.842;2022-07-29T15:22:53;26.00;59.60
17697;DHT22;8967;47.984;7.842;2022-07-29T15:25:21;25.90;59.30
17697;DHT22;8967;47.984;7.842;2022-07-29T15:27:48;25.90;59.20
17697;DHT22;8967;47.984;7.842;2022-07-29T15:30:16;25.90;58.80
17697;DHT22;8967;47.984;7.842;2022-07-29T15:32:43;25.90;59.00
17697;DHT22;8967;47.984;7.842;2022-07-29T15:35:11;25.90;59.00
17697;DHT22;8967;47.984;7.842;2022-07-29T15:37:40;25.90;58.70
17697;DHT22;8967;47.984;7.842;2022-07-29T15:40:08;25.90;58.50
17697;DHT22;8967;47.984;7.842;2022-07-29T15:42:35;25.90;58.50
17697;DHT22;8967;47.984;7.842;2022-07-29T15:45:06;25.90;58.50
17697;DHT22;8967;47.984;7.842;2022-07-29T15:47:38;26.00;58.60
17697;DHT22;8967;47.984;7.842;2022-07-29T15:50:06;26.00;58.40
17697;DHT22;8967;47.984;7.842;2022-07-29T15:52:37;26.00;58.20
17697;DHT22;8967;47.984;7.842;2022-07-29T15:55:05;26.00;58.20
17697;DHT22;8967;47.984;7.842;2022-07-29T15:57:32;26.00;57.90
17697;DHT22;8967;47.984;7.842;2022-07-29T15:59:59;26.00;57.90
17697;DHT22;8967;47.984;7.842;2022-07-29T16:02:26;26.00;57.60
17697;DHT22;8967;47.984;7.842;2022-07-29T16:04:54;26.00;57.60